Time;durP1;ratioP1;P1;durP2;ratioP2;P2;SDS_P1;SDS_P2;PMS_P1;PMS_P2;Temp;Humidity;BMP_temperature;BMP_pressure;BME280_temperature;BME280_humidity;BME280_pressure;Samples;Min_cycle;Max_cycle;Signal;HPM_P1;HPM_P2
2024/01/18 00:01:33;;;;;;;5.65;2.47;;;1.60;99.90;;;;;;5030594;28;20091;-49
2024/01/18 00:04:00;;;;;;;4.35;2.08;;;1.60;99.90;;;;;;5030600;28;20492;-52
2024/01/18 00:06:26;;;;;;;4.80;1.80;;;1.60;99.90;;;;;;5028271;28;20029;-50
2024/01/18 00:08:51;;;;;;;4.82;1.80;;;1.60;99.90;;;;;;5033952;28;20020;-51
2024/01/18 00:11:17;;;;;;;6.53;1.90;;;1.60;99.90;;;;;;5046933;28;20041;-51
2024/01/18 00:13:44;;;;;;;6.57;2.22;;;1.60;99.90;;;;;;5039362;28;20036;-49
2024/01/18 00:16:09;;;;;;;5.15;1.95;;;1.60;99.90;;;;;;5029272;28;20507;-52
2024/01/18 00:18:35;;;;;;;7.32;1.95;;;1.50;99.90;;;;;;5030257;28;20109;-50
2024/01/18 00:21:01;;;;;;;4.10;1.67;;;1.50;99.90;;;;;;5030407;28;20025;-52
2024/01/18 00:23:27;;;;;;;5.60;2.03;;;1.50;99.90;;;;;;5036667;28;20049;-51
2024/01/18 00:25:52;;;;;;;3.70;1.90;;;1.50;99.90;;;;;;5030453;28;20114;-53
2024/01/18 00:28:18;;;;;;;4.13;1.70;;;1.50;99.90;;;;;;5041399;28;20021;-49
2024/01/18 00:30:44;;;;;;;3.65;1.73;;;1.50;99.90;;;;;;5029539;28;20033;-54
2024/01/18 00:33:09;;;;;;;2.97;1.85;;;1.50;99.90;;;;;;5042050;28;20017;-51
2024/01/18 00:35:35;;;;;;;4.38;1.80;;;1.40;99.90;;;;;;5035117;28;20086;-50
2024/01/18 00:38:01;;;;;;;3.83;1.90;;;1.40;99.90;;;;;;5048844;28;20044;-49
2024/01/18 00:40:27;;;;;;;4.82;1.52;;;1.50;99.90;;;;;;5046983;28;20090;-52
2024/01/18 00:42:52;;;;;;;4.53;1.70;;;1.40;99.90;;;;;;5043087;28;20472;-50
2024/01/18 00:45:18;;;;;;;3.63;1.77;;;1.40;99.90;;;;;;5035108;28;20021;-49
2024/01/18 00:47:44;;;;;;;3.42;1.73;;;1.40;99.90;;;;;;5047268;28;20021;-51
2024/01/18 00:50:10;;;;;;;5.97;1.63;;;1.40;99.90;;;;;;5034075;28;20546;-49
2024/01/18 00:52:36;;;;;;;2.72;1.52;;;1.40;99.90;;;;;;5029606;28;20114;-55
2024/01/18 00:55:01;;;;;;;4.20;1.88;;;1.40;99.90;;;;;;5036027;28;20065;-54
2024/01/18 00:57:28;;;;;;;3.33;1.60;;;1.40;99.90;;;;;;5036052;28;20075;-52
2024/01/18 00:59:54;;;;;;;4.93;1.88;;;1.40;99.90;;;;;;5043469;28;20021;-49
2024/01/18 01:02:20;;;;;;;3.35;1.58;;;1.30;99.90;;;;;;5030245;28;20053;-54
2024/01/18 01:04:46;;;;;;;9.00;2.08;;;1.30;99.90;;;;;;5037425;28;20354;-55
2024/01/18 01:07:11;;;;;;;3.70;1.33;;;1.30;99.90;;;;;;5041031;28;20537;-57
2024/01/18 01:09:37;;;;;;;3.58;1.48;;;1.30;99.90;;;;;;5039914;28;20025;-53
2024/01/18 01:12:03;;;;;;;7.40;1.90;;;1.20;99.90;;;;;;5033516;28;20064;-48
2024/01/18 01:14:29;;;;;;;3.03;1.27;;;1.20;99.90;;;;;;5045581;28;20017;-52
2024/01/18 01:16:55;;;;;;;5.65;1.70;;;1.20;99.90;;;;;;5035575;28;20095;-52
2024/01/18 01:19:21;;;;;;;4.45;1.98;;;1.20;99.90;;;;;;5031957;28;20017;-52
2024/01/18 01:21:46;;;;;;;9.25;1.58;;;1.20;99.90;;;;;;5037525;28;20029;-54
2024/01/18 01:24:12;;;;;;;3.60;1.77;;;1.10;99.90;;;;;;5047501;28;20056;-49
2024/01/18 01:26:38;;;;;;;4.65;1.38;;;1.10;99.90;;;;;;5033484;28;20022;-55
2024/01/18 01:29:05;;;;;;;3.28;1.40;;;1.00;99.90;;;;;;5035219;28;20045;-57
2024/01/18 01:31:30;;;;;;;3.00;1.30;;;1.00;99.90;;;;;;5048301;28;20021;-51
2024/01/18 01:33:56;;;;;;;3.65;1.50;;;1.00;99.90;;;;;;5040907;28;20116;-55
2024/01/18 01:36:22;;;;;;;3.70;1.83;;;0.90;99.90;;;;;;5037826;28;20106;-53
2024/01/18 01:38:48;;;;;;;7.47;2.03;;;0.90;99.90;;;;;;5051281;28;20031;-51
2024/01/18 01:41:14;;;;;;;2.13;1.38;;;0.80;99.90;;;;;;5042182;28;20025;-51
2024/01/18 01:44:15;;;;;;;4.97;1.73;;;0.80;99.90;;;;;;5047487;28;20078;-50
2024/01/18 01:46:41;;;;;;;4.68;1.73;;;0.80;99.90;;;;;;5002834;28;20091;-54
2024/01/18 01:49:06;;;;;;;3.72;1.63;;;0.70;99.90;;;;;;5033021;28;20112;-50
2024/01/18 01:51:48;;;;;;;2.25;1.15;;;0.60;99.90;;;;;;5032369;28;20361;-54
2024/01/18 01:54:15;;;;;;;2.80;1.25;;;0.60;99.90;;;;;;5033100;28;20037;-48
2024/01/18 01:56:44;;;;;;;3.83;1.40;;;0.60;99.90;;;;;;5032917;28;20128;-58
2024/01/18 01:59:10;;;;;;;5.43;1.33;;;0.50;99.90;;;;;;5036267;28;20021;-52
2024/01/18 02:01:37;;;;;;;2.22;1.15;;;0.50;99.90;;;;;;5040510;28;20058;-53
2024/01/18 02:04:03;;;;;;;4.40;1.73;;;0.50;99.90;;;;;;5036418;28;20136;-51
2024/01/18 02:06:31;;;;;;;3.03;1.52;;;0.40;99.90;;;;;;5050561;28;20539;-51
2024/01/18 02:08:57;;;;;;;3.47;1.40;;;0.30;99.90;;;;;;5051039;28;20101;-51
2024/01/18 02:11:23;;;;;;;4.18;1.17;;;0.20;99.90;;;;;;5049021;28;20131;-51
2024/01/18 02:13:49;;;;;;;2.75;1.35;;;0.10;99.90;;;;;;5039742;28;20040;-51
2024/01/18 02:16:15;;;;;;;2.90;1.55;;;0.10;99.90;;;;;;5052652;28;20036;-50
2024/01/18 02:18:40;;;;;;;3.88;1.70;;;0.00;99.90;;;;;;5045559;28;20025;-51
2024/01/18 02:21:09;;;;;;;5.43;1.63;;;0.00;99.90;;;;;;5052373;28;20503;-52
2024/01/18 02:23:37;;;;;;;3.22;1.33;;;0.00;99.90;;;;;;5045621;28;20029;-55
2024/01/18 02:26:04;;;;;;;3.55;1.50;;;-0.10;99.90;;;;;;5036898;28;20045;-52
2024/01/18 02:28:29;;;;;;;3.97;1.13;;;-0.20;99.90;;;;;;5042192;28;20028;-55
2024/01/18 02:30:55;;;;;;;3.72;1.58;;;-0.10;99.90;;;;;;5052346;28;20422;-57
2024/01/18 02:33:21;;;;;;;1.25;1.00;;;-0.20;99.90;;;;;;5049505;28;20017;-50
2024/01/18 02:35:46;;;;;;;2.90;1.30;;;-0.20;99.90;;;;;;5041365;28;20136;-56
2024/01/18 02:38:12;;;;;;;2.28;1.35;;;-0.20;99.90;;;;;;5052480;28;20061;-52
2024/01/18 02:40:39;;;;;;;4.70;1.60;;;-0.30;99.90;;;;;;5052524;28;20025;-51
2024/01/18 02:43:05;;;;;;;4.35;1.52;;;-0.40;99.90;;;;;;5052329;28;20365;-55
2024/01/18 02:45:30;;;;;;;1.65;0.88;;;-0.40;99.90;;;;;;5052243;28;20116;-57
2024/01/18 02:47:56;;;;;;;4.45;1.35;;;-0.50;99.90;;;;;;5052026;28;20096;-53
2024/01/18 02:50:22;;;;;;;2.28;1.13;;;-0.50;99.90;;;;;;5052164;28;20086;-55
2024/01/18 02:52:47;;;;;;;3.17;1.15;;;-0.50;99.90;;;;;;5052022;28;20020;-54
2024/01/18 02:55:13;;;;;;;1.35;0.88;;;-0.50;99.90;;;;;;5052112;28;20033;-55
2024/01/18 02:57:41;;;;;;;3.30;1.50;;;-0.60;99.90;;;;;;5052182;28;20024;-54
2024/01/18 03:00:07;;;;;;;2.50;1.13;;;-0.60;99.90;;;;;;5052038;28;20013;-52
2024/01/18 03:02:33;;;;;;;2.33;1.10;;;-0.70;99.90;;;;;;5051782;28;20049;-58
2024/01/18 03:04:59;;;;;;;2.60;1.50;;;-0.70;99.90;;;;;;5051990;28;20332;-55
2024/01/18 03:07:24;;;;;;;4.78;1.33;;;-0.70;99.90;;;;;;5051989;28;20043;-52
2024/01/18 03:09:50;;;;;;;2.03;1.13;;;-0.70;99.90;;;;;;5051970;28;20067;-55
2024/01/18 03:12:15;;;;;;;4.55;1.33;;;-0.80;99.90;;;;;;5051923;28;20028;-55
2024/01/18 03:14:41;;;;;;;2.60;1.08;;;-0.80;99.90;;;;;;5051816;28;20072;-55
2024/01/18 03:17:07;;;;;;;2.28;1.00;;;-0.80;99.90;;;;;;5051650;28;20087;-49
2024/01/18 03:19:32;;;;;;;5.13;1.35;;;-0.80;99.90;;;;;;5051777;28;20758;-49
2024/01/18 03:21:58;;;;;;;4.88;1.20;;;-0.70;99.90;;;;;;5050294;28;20752;-48
2024/01/18 03:24:23;;;;;;;4.68;1.40;;;-0.80;99.90;;;;;;5050012;28;20096;-49
2024/01/18 03:26:49;;;;;;;3.40;1.20;;;-0.80;99.90;;;;;;5046716;28;20047;-48
2024/01/18 03:29:15;;;;;;;6.07;1.77;;;-0.90;99.90;;;;;;5051504;28;20086;-49
2024/01/18 03:31:40;;;;;;;2.58;1.50;;;-1.00;99.90;;;;;;5051354;28;20029;-50
2024/01/18 03:34:06;;;;;;;1.27;0.80;;;-1.00;99.90;;;;;;5051106;28;20480;-49
2024/01/18 03:36:32;;;;;;;2.58;0.90;;;-1.10;99.90;;;;;;5051150;28;20064;-49
2024/01/18 03:38:58;;;;;;;2.90;1.48;;;-1.10;99.90;;;;;;5051072;28;20056;-52
2024/01/18 03:41:24;;;;;;;1.48;0.98;;;-1.10;99.90;;;;;;5051460;28;20033;-50
2024/01/18 03:43:49;;;;;;;1.98;1.20;;;-1.20;99.90;;;;;;5051154;28;20108;-49
2024/01/18 03:46:15;;;;;;;2.42;1.20;;;-1.30;99.90;;;;;;5051262;28;20452;-52
2024/01/18 03:48:41;;;;;;;1.55;0.98;;;-1.20;99.90;;;;;;5051067;28;20029;-52
2024/01/18 03:51:07;;;;;;;1.58;1.10;;;-1.30;99.90;;;;;;5050802;28;20480;-50
2024/01/18 03:53:36;;;;;;;3.42;1.40;;;-1.40;99.90;;;;;;5051156;28;20024;-49
2024/01/18 03:56:01;;;;;;;8.90;1.42;;;-1.50;99.90;;;;;;5050770;28;20036;-50
2024/01/18 03:58:27;;;;;;;2.80;1.10;;;-1.40;99.90;;;;;;5050868;28;20013;-55
2024/01/18 04:00:52;;;;;;;2.72;1.00;;;-1.50;99.90;;;;;;5050067;28;20029;-52
2024/01/18 04:03:20;;;;;;;1.95;1.25;;;-1.50;99.90;;;;;;5050589;28;20043;-53
2024/01/18 04:05:46;;;;;;;3.03;1.00;;;-1.60;99.90;;;;;;5050832;28;20153;-49
2024/01/18 04:08:11;;;;;;;1.25;0.82;;;-1.50;99.90;;;;;;5050467;28;20128;-49
2024/01/18 04:10:37;;;;;;;4.78;1.45;;;-1.70;99.90;;;;;;5050584;28;20032;-52
2024/01/18 04:13:02;;;;;;;2.97;1.40;;;-1.80;99.90;;;;;;5050679;28;20028;-56
2024/01/18 04:15:29;;;;;;;2.88;1.38;;;-1.80;99.90;;;;;;5050115;28;20069;-54
2024/01/18 04:17:54;;;;;;;1.85;0.90;;;-1.80;99.90;;;;;;5050199;28;20372;-55
2024/01/18 04:20:26;;;;;;;1.80;1.00;;;-1.90;99.90;;;;;;5050656;28;20021;-51
2024/01/18 04:22:52;;;;;;;3.65;1.45;;;-1.90;99.90;;;;;;5050648;28;20053;-53
2024/01/18 04:25:17;;;;;;;1.85;0.93;;;-2.00;99.90;;;;;;5050486;28;20502;-51
2024/01/18 04:27:43;;;;;;;3.22;1.60;;;-2.00;99.90;;;;;;5050871;28;20368;-54
2024/01/18 04:30:09;;;;;;;2.90;1.50;;;-2.00;99.90;;;;;;5050509;28;20021;-52
2024/01/18 04:32:35;;;;;;;3.20;1.60;;;-2.00;99.90;;;;;;5050486;28;20124;-49
2024/01/18 04:35:00;;;;;;;1.85;1.23;;;-2.00;99.90;;;;;;5050211;28;20071;-49
2024/01/18 04:37:26;;;;;;;8.73;1.60;;;-2.10;99.90;;;;;;5050126;28;20028;-54
2024/01/18 04:39:52;;;;;;;2.15;1.33;;;-2.10;99.90;;;;;;5050181;28;20021;-49
2024/01/18 04:42:18;;;;;;;2.35;1.13;;;-2.20;99.90;;;;;;5049942;28;20025;-49
2024/01/18 04:44:43;;;;;;;3.17;1.40;;;-2.30;99.90;;;;;;5050161;28;20385;-50
2024/01/18 04:47:09;;;;;;;3.65;1.42;;;-2.30;99.90;;;;;;5049829;28;20108;-49
2024/01/18 04:49:35;;;;;;;3.40;1.40;;;-2.30;99.90;;;;;;5050190;28;20474;-50
2024/01/18 04:52:00;;;;;;;3.45;1.48;;;-2.40;99.90;;;;;;5050077;28;20087;-49
2024/01/18 04:54:26;;;;;;;2.70;1.30;;;-2.40;99.90;;;;;;5049876;28;20035;-49
2024/01/18 04:56:52;;;;;;;5.00;1.20;;;-2.40;99.90;;;;;;5050089;28;20472;-51
2024/01/18 04:59:18;;;;;;;1.83;1.20;;;-2.30;99.90;;;;;;5049683;28;20024;-50
2024/01/18 05:01:43;;;;;;;2.53;1.50;;;-2.40;99.90;;;;;;5049613;28;20539;-49
2024/01/18 05:04:09;;;;;;;3.83;1.70;;;-2.30;99.90;;;;;;5049765;28;20076;-49
2024/01/18 05:06:35;;;;;;;3.65;1.58;;;-2.30;99.90;;;;;;5049872;28;20510;-51
2024/01/18 05:09:01;;;;;;;4.93;1.90;;;-2.30;99.90;;;;;;5049809;28;20078;-49
2024/01/18 05:11:27;;;;;;;3.08;1.27;;;-2.30;99.90;;;;;;5049772;28;20048;-49
2024/01/18 05:13:53;;;;;;;4.10;1.63;;;-2.40;99.90;;;;;;5052594;28;20067;-49
2024/01/18 05:16:19;;;;;;;6.75;1.73;;;-2.30;99.90;;;;;;5053771;28;20488;-51
2024/01/18 05:18:46;;;;;;;2.53;1.30;;;-2.40;99.90;;;;;;5054297;28;20021;-49
2024/01/18 05:21:11;;;;;;;2.03;1.30;;;-2.40;99.90;;;;;;5052862;28;20029;-49
2024/01/18 05:23:37;;;;;;;2.75;1.42;;;-2.40;99.90;;;;;;5054069;28;20456;-49
2024/01/18 05:26:03;;;;;;;2.42;1.30;;;-2.40;99.90;;;;;;5053950;28;20037;-49
2024/01/18 05:28:29;;;;;;;4.95;1.60;;;-2.40;99.90;;;;;;5054267;28;20025;-49
2024/01/18 05:30:57;;;;;;;3.67;1.42;;;-2.40;99.90;;;;;;5053959;28;20131;-49
2024/01/18 05:33:22;;;;;;;2.83;1.58;;;-2.40;99.90;;;;;;5053978;28;20104;-49
2024/01/18 05:35:49;;;;;;;3.70;1.35;;;-2.40;99.90;;;;;;5053553;28;20511;-49
2024/01/18 05:38:15;;;;;;;1.73;1.17;;;-2.40;99.90;;;;;;5052383;28;20032;-49
2024/01/18 05:40:40;;;;;;;3.85;1.70;;;-2.40;99.90;;;;;;5053463;28;20112;-50
2024/01/18 05:43:06;;;;;;;3.65;1.83;;;-2.40;99.90;;;;;;5053763;28;20055;-50
2024/01/18 05:45:31;;;;;;;3.33;1.90;;;-2.40;99.90;;;;;;5053557;28;20028;-51
2024/01/18 05:47:57;;;;;;;5.40;1.30;;;-2.50;99.90;;;;;;5053902;28;20025;-49
2024/01/18 05:50:23;;;;;;;2.55;1.45;;;-2.50;99.90;;;;;;5053651;28;20496;-49
2024/01/18 05:52:48;;;;;;;5.15;1.80;;;-2.60;99.90;;;;;;5053716;28;20032;-50
2024/01/18 05:55:14;;;;;;;9.18;1.80;;;-2.50;99.90;;;;;;5053626;28;20388;-50
2024/01/18 05:57:41;;;;;;;2.05;1.50;;;-2.50;99.90;;;;;;5053418;28;20048;-49
2024/01/18 06:00:07;;;;;;;4.57;1.58;;;-2.60;99.90;;;;;;5053741;28;20064;-55
2024/01/18 06:02:33;;;;;;;2.20;1.27;;;-2.60;99.90;;;;;;5053080;28;20049;-53
2024/01/18 06:04:59;;;;;;;3.40;1.60;;;-2.60;99.90;;;;;;5053167;28;20400;-56
2024/01/18 06:07:26;;;;;;;6.78;1.40;;;-2.50;99.90;;;;;;5053199;28;20063;-49
2024/01/18 06:09:52;;;;;;;2.53;1.45;;;-2.60;99.90;;;;;;5052955;28;20013;-54
2024/01/18 06:12:17;;;;;;;3.10;1.38;;;-2.60;99.90;;;;;;5053094;28;20031;-53
2024/01/18 06:14:43;;;;;;;4.78;1.75;;;-2.60;99.90;;;;;;5052894;28;20017;-50
2024/01/18 06:17:09;;;;;;;2.22;1.08;;;-2.60;99.90;;;;;;5053349;28;20135;-53
2024/01/18 06:19:35;;;;;;;5.20;1.67;;;-2.60;99.90;;;;;;5052819;28;20352;-50
2024/01/18 06:22:00;;;;;;;2.05;1.08;;;-2.60;99.90;;;;;;5045479;28;20026;-51
2024/01/18 06:24:28;;;;;;;3.05;1.77;;;-2.70;99.90;;;;;;5027108;28;20495;-50
2024/01/18 06:26:54;;;;;;;3.60;1.70;;;-2.70;99.90;;;;;;5032693;28;20055;-52
2024/01/18 06:29:26;;;;;;;4.50;1.45;;;-2.60;99.90;;;;;;5032565;28;20018;-51
2024/01/18 06:31:52;;;;;;;2.53;1.38;;;-2.60;99.90;;;;;;5032852;28;20064;-53
2024/01/18 06:34:18;;;;;;;5.60;1.48;;;-2.60;99.90;;;;;;5032473;28;20060;-50
2024/01/18 06:36:44;;;;;;;3.50;1.58;;;-2.60;99.90;;;;;;5028180;28;20041;-56
2024/01/18 06:39:10;;;;;;;3.20;1.33;;;-2.60;99.90;;;;;;5032324;28;20417;-51
2024/01/18 06:41:36;;;;;;;3.28;1.40;;;-2.60;99.90;;;;;;5032378;28;20045;-53
2024/01/18 06:44:02;;;;;;;3.58;1.30;;;-2.70;99.90;;;;;;5032146;28;20029;-53
2024/01/18 06:46:29;;;;;;;4.72;1.60;;;-2.70;99.90;;;;;;5032362;28;20022;-50
2024/01/18 06:48:56;;;;;;;5.15;1.85;;;-2.70;99.90;;;;;;5032397;28;20076;-52
2024/01/18 06:51:23;;;;;;;3.13;1.92;;;-2.80;99.90;;;;;;5032386;28;20026;-57
2024/01/18 06:53:49;;;;;;;2.65;1.50;;;-2.70;99.90;;;;;;5032383;28;20032;-56
2024/01/18 06:56:15;;;;;;;2.10;1.13;;;-2.80;99.90;;;;;;5031965;28;20424;-50
2024/01/18 06:58:42;;;;;;;3.45;2.00;;;-2.80;99.90;;;;;;5032456;28;20520;-56
2024/01/18 07:01:07;;;;;;;8.15;1.70;;;-2.80;99.90;;;;;;5030843;28;21491;-56
2024/01/18 07:03:35;;;;;;;4.82;2.03;;;-2.90;99.90;;;;;;5032265;28;20481;-54
2024/01/18 07:06:04;;;;;;;7.22;2.28;;;-3.00;99.90;;;;;;5032148;28;20480;-51
2024/01/18 07:08:30;;;;;;;5.07;1.55;;;-3.00;99.90;;;;;;5032237;28;20045;-49
2024/01/18 07:10:57;;;;;;;4.28;1.83;;;-3.00;99.90;;;;;;5032043;28;20029;-49
2024/01/18 07:13:25;;;;;;;3.63;2.00;;;-3.10;99.90;;;;;;5031972;28;20022;-54
2024/01/18 07:15:51;;;;;;;4.78;2.30;;;-3.10;99.90;;;;;;5031972;28;20029;-54
2024/01/18 07:18:17;;;;;;;12.43;3.40;;;-3.20;99.90;;;;;;5030562;28;20025;-52
2024/01/18 07:20:42;;;;;;;6.47;2.38;;;-3.10;99.90;;;;;;5032023;28;20360;-54
2024/01/18 07:23:08;;;;;;;7.43;2.38;;;-3.20;99.90;;;;;;5031855;28;20384;-50
2024/01/18 07:25:34;;;;;;;4.07;1.77;;;-3.20;99.90;;;;;;5031738;28;20025;-52
2024/01/18 07:27:59;;;;;;;6.18;2.40;;;-3.30;99.90;;;;;;5031940;28;20088;-52
2024/01/18 07:30:25;;;;;;;5.82;2.33;;;-3.40;99.90;;;;;;5031626;28;20089;-57
2024/01/18 07:32:51;;;;;;;4.93;2.13;;;-3.40;99.90;;;;;;5031386;28;20060;-53
2024/01/18 07:35:17;;;;;;;7.00;2.30;;;-3.50;99.90;;;;;;5030574;28;20244;-54
2024/01/18 07:37:42;;;;;;;5.15;1.75;;;-3.50;99.90;;;;;;5023770;28;20028;-52
2024/01/18 07:40:08;;;;;;;2.40;1.42;;;-3.50;99.90;;;;;;5051287;28;20032;-53
2024/01/18 07:42:34;;;;;;;4.25;1.95;;;-3.50;99.90;;;;;;5051367;28;20013;-52
2024/01/18 07:45:00;;;;;;;5.43;2.05;;;-3.50;99.90;;;;;;5051344;28;20021;-51
2024/01/18 07:47:26;;;;;;;3.88;1.92;;;-3.50;99.90;;;;;;5041052;28;20167;-51
2024/01/18 07:49:52;;;;;;;4.10;1.35;;;-3.50;99.90;;;;;;5031349;28;20025;-50
2024/01/18 07:52:18;;;;;;;5.20;1.98;;;-3.50;99.90;;;;;;5026217;28;20128;-51
2024/01/18 07:54:43;;;;;;;4.72;1.77;;;-3.50;99.90;;;;;;5031115;28;20427;-55
2024/01/18 07:57:09;;;;;;;3.83;1.67;;;-3.50;99.90;;;;;;5025621;28;20038;-54
2024/01/18 07:59:36;;;;;;;4.60;2.35;;;-3.50;99.90;;;;;;5030953;28;20372;-54
2024/01/18 08:02:02;;;;;;;8.88;2.28;;;-3.50;99.90;;;;;;5030456;28;20520;-48
2024/01/18 08:04:29;;;;;;;9.13;2.05;;;-3.50;99.90;;;;;;5030731;28;20022;-52
2024/01/18 08:06:55;;;;;;;6.07;2.03;;;-3.60;99.90;;;;;;5030905;28;20052;-49
2024/01/18 08:09:21;;;;;;;6.60;1.67;;;-3.50;99.90;;;;;;5030504;28;20482;-50
2024/01/18 08:11:47;;;;;;;4.45;1.95;;;-3.50;99.90;;;;;;5030595;28;20024;-54
2024/01/18 08:14:13;;;;;;;4.30;1.65;;;-3.40;99.90;;;;;;5030199;28;20052;-53
2024/01/18 08:16:38;;;;;;;4.03;1.85;;;-3.40;99.90;;;;;;5030476;28;20386;-54
2024/01/18 08:19:04;;;;;;;3.22;1.70;;;-3.40;99.90;;;;;;5030530;28;20029;-49
2024/01/18 08:21:30;;;;;;;2.97;1.67;;;-3.30;99.90;;;;;;5023335;28;20094;-53
2024/01/18 08:23:56;;;;;;;4.78;2.33;;;-3.30;99.90;;;;;;5024026;28;20037;-53
2024/01/18 08:26:21;;;;;;;2.95;1.70;;;-3.30;99.90;;;;;;5025023;28;20031;-51
2024/01/18 08:28:47;;;;;;;3.65;1.95;;;-3.20;99.90;;;;;;5030454;28;20021;-53
2024/01/18 08:31:13;;;;;;;3.28;1.67;;;-3.20;99.90;;;;;;5030491;28;20025;-52
2024/01/18 08:33:39;;;;;;;4.15;2.00;;;-3.10;99.90;;;;;;5030159;28;20018;-48
2024/01/18 08:36:06;;;;;;;5.55;1.80;;;-3.00;99.90;;;;;;5036917;28;20041;-52
2024/01/18 08:38:32;;;;;;;5.07;2.30;;;-2.90;99.90;;;;;;5050233;28;20147;-53
2024/01/18 08:40:58;;;;;;;4.72;2.55;;;-2.90;99.90;;;;;;5050220;28;20087;-50
2024/01/18 08:43:26;;;;;;;4.70;1.80;;;-2.80;99.90;;;;;;5050299;28;20082;-49
2024/01/18 08:45:53;;;;;;;5.75;2.38;;;-2.60;99.90;;;;;;5048901;28;20408;-48
2024/01/18 08:48:20;;;;;;;6.22;2.42;;;-2.30;99.90;;;;;;5049967;28;20048;-51
2024/01/18 08:50:46;;;;;;;4.70;1.77;;;-1.40;99.90;;;;;;5049788;28;20025;-53
2024/01/18 08:53:11;;;;;;;5.20;2.03;;;0.50;99.90;;;;;;5049812;28;20029;-58
2024/01/18 08:55:38;;;;;;;3.92;2.03;;;2.70;99.90;;;;;;5049892;28;20033;-52
2024/01/18 08:58:05;;;;;;;7.70;2.35;;;4.40;99.90;;;;;;5044242;28;20398;-53
2024/01/18 09:00:30;;;;;;;5.22;2.40;;;5.90;97.60;;;;;;5043491;28;20051;-57
2024/01/18 09:02:56;;;;;;;3.78;1.98;;;6.90;93.90;;;;;;5032734;28;20057;-56
2024/01/18 09:05:22;;;;;;;4.95;2.05;;;7.30;91.50;;;;;;5036082;28;20067;-53
2024/01/18 09:07:47;;;;;;;4.72;2.10;;;7.80;90.70;;;;;;5041989;28;20113;-53
2024/01/18 09:10:13;;;;;;;6.75;2.53;;;8.60;90.60;;;;;;5028638;28;20100;-47
2024/01/18 09:12:39;;;;;;;4.90;2.50;;;8.70;86.60;;;;;;5027118;28;20108;-53
2024/01/18 09:15:05;;;;;;;4.63;2.30;;;8.90;88.00;;;;;;5022239;28;20035;-50
2024/01/18 09:17:31;;;;;;;6.63;2.50;;;9.20;91.30;;;;;;5017267;28;20030;-51
2024/01/18 09:19:57;;;;;;;5.63;2.38;;;8.30;89.00;;;;;;5029784;28;20021;-49
2024/01/18 09:22:23;;;;;;;5.45;2.67;;;6.80;88.30;;;;;;5029515;28;20534;-50
2024/01/18 09:24:49;;;;;;;5.13;2.35;;;5.10;87.80;;;;;;5029807;28;20344;-54
2024/01/18 09:27:15;;;;;;;8.57;3.03;;;3.70;91.50;;;;;;5029674;28;20065;-51
2024/01/18 09:29:41;;;;;;;6.53;3.28;;;2.60;92.60;;;;;;5029703;28;20072;-51
2024/01/18 09:32:07;;;;;;;9.68;3.63;;;1.70;93.20;;;;;;5029235;28;20132;-48
2024/01/18 09:34:33;;;;;;;7.93;3.30;;;1.00;94.40;;;;;;5029667;28;20032;-49
2024/01/18 09:36:59;;;;;;;7.88;3.20;;;0.40;95.30;;;;;;5043667;28;20588;-52
2024/01/18 09:39:24;;;;;;;5.43;3.08;;;-0.10;96.40;;;;;;5022095;28;20029;-55
2024/01/18 09:41:52;;;;;;;9.32;3.42;;;-0.30;97.00;;;;;;5031558;28;20025;-51
2024/01/18 09:44:30;;;;;;;7.00;3.35;;;-0.50;97.80;;;;;;5029477;28;20029;-49
2024/01/18 09:46:57;;;;;;;5.90;3.03;;;-0.50;98.10;;;;;;5029649;28;20024;-53
2024/01/18 09:49:24;;;;;;;7.10;3.13;;;-0.60;98.30;;;;;;5029823;28;20052;-50
2024/01/18 09:51:51;;;;;;;8.43;2.97;;;-0.50;98.50;;;;;;5028268;28;20083;-51
2024/01/18 09:54:18;;;;;;;7.90;3.38;;;-0.50;99.10;;;;;;5029379;28;20040;-54
2024/01/18 09:56:45;;;;;;;4.68;2.33;;;-0.40;99.00;;;;;;5029555;28;20145;-53
2024/01/18 09:59:18;;;;;;;6.47;3.47;;;-0.40;99.50;;;;;;5030969;28;20096;-48
2024/01/18 10:01:44;;;;;;;9.27;3.50;;;-0.20;99.30;;;;;;5033081;28;20046;-50
2024/01/18 10:04:17;;;;;;;7.90;3.47;;;0.80;99.90;;;;;;5026091;28;20022;-54
2024/01/18 10:06:43;;;;;;;7.22;2.75;;;3.40;98.30;;;;;;5033316;28;20112;-53
2024/01/18 10:09:14;;;;;;;3.67;2.38;;;5.80;94.60;;;;;;5033232;28;20496;-48
2024/01/18 10:11:46;;;;;;;10.88;3.00;;;8.30;92.40;;;;;;5033080;28;20029;-53
2024/01/18 10:14:12;;;;;;;5.20;2.05;;;10.50;90.00;;;;;;5033063;28;20017;-54
2024/01/18 10:16:40;;;;;;;4.03;1.90;;;12.20;82.70;;;;;;5032909;28;20516;-47
2024/01/18 10:19:18;;;;;;;5.72;2.88;;;13.80;75.50;;;;;;5025634;28;20032;-50
2024/01/18 10:21:46;;;;;;;16.60;7.15;;;14.40;69.70;;;;;;5031297;28;20416;-49
2024/01/18 10:24:13;;;;;;;19.88;6.25;;;15.30;63.60;;;;;;5031035;28;20043;-52
2024/01/18 10:26:40;;;;;;;7.45;3.58;;;16.20;66.20;;;;;;5025541;28;20026;-51
2024/01/18 10:29:08;;;;;;;5.30;2.78;;;17.10;60.30;;;;;;5029719;28;20026;-49
2024/01/18 10:31:38;;;;;;;5.35;3.40;;;17.00;58.20;;;;;;5024345;28;20033;-51
2024/01/18 10:34:03;;;;;;;7.18;2.63;;;17.50;58.80;;;;;;5032701;28;20460;-48
2024/01/18 10:36:29;;;;;;;4.05;1.52;;;16.60;56.60;;;;;;5042648;28;20067;-49
2024/01/18 10:38:55;;;;;;;7.57;3.88;;;17.70;57.40;;;;;;5052629;28;20025;-54
2024/01/18 10:41:20;;;;;;;7.35;3.72;;;18.20;52.90;;;;;;5044336;28;20036;-54
2024/01/18 10:43:48;;;;;;;6.18;3.42;;;18.10;54.10;;;;;;5052591;28;20116;-52
2024/01/18 10:46:14;;;;;;;3.97;2.08;;;18.00;50.60;;;;;;5052745;28;20028;-47
2024/01/18 10:48:44;;;;;;;5.50;2.30;;;18.00;51.80;;;;;;5038847;28;20508;-51
2024/01/18 10:51:11;;;;;;;3.72;2.22;;;18.40;54.10;;;;;;5036929;28;20032;-51
2024/01/18 10:53:38;;;;;;;5.22;2.65;;;18.80;52.40;;;;;;5023575;28;20026;-55
2024/01/18 10:56:04;;;;;;;5.50;2.10;;;18.80;52.30;;;;;;5032114;28;20124;-52
2024/01/18 10:58:30;;;;;;;5.47;1.90;;;18.60;47.80;;;;;;5031907;28;20026;-52
2024/01/18 11:00:57;;;;;;;2.58;1.33;;;19.00;47.90;;;;;;5031195;28;20028;-51
2024/01/18 11:03:23;;;;;;;4.90;1.70;;;18.10;48.90;;;;;;5032154;28;20516;-53
2024/01/18 11:05:49;;;;;;;4.40;1.88;;;18.00;46.90;;;;;;5029069;28;20064;-52
2024/01/18 11:08:17;;;;;;;3.20;1.70;;;18.10;49.90;;;;;;5029424;28;20108;-51
2024/01/18 11:10:46;;;;;;;3.95;2.00;;;19.20;48.60;;;;;;5031496;28;20468;-51
2024/01/18 11:13:14;;;;;;;3.20;1.90;;;19.70;47.50;;;;;;5029873;28;20056;-52
2024/01/18 11:15:42;;;;;;;2.63;1.55;;;19.50;46.20;;;;;;5031790;28;20069;-50
2024/01/18 11:18:10;;;;;;;5.25;2.88;;;18.40;45.30;;;;;;5030498;28;20029;-52
2024/01/18 11:20:57;;;;;;;4.32;2.15;;;18.60;45.40;;;;;;5020847;28;20108;-49
2024/01/18 11:23:26;;;;;;;4.88;2.92;;;18.60;46.90;;;;;;5030024;28;20018;-51
2024/01/18 11:25:52;;;;;;;2.88;1.55;;;19.30;46.60;;;;;;5031584;28;20051;-49
2024/01/18 11:28:25;;;;;;;4.55;1.63;;;19.30;46.00;;;;;;5031119;28;20052;-49
2024/01/18 11:30:52;;;;;;;3.75;1.50;;;19.40;45.00;;;;;;5030067;28;20025;-53
2024/01/18 11:33:22;;;;;;;3.70;1.50;;;18.40;45.10;;;;;;5027597;28;20025;-54
2024/01/18 11:35:50;;;;;;;4.25;1.70;;;19.70;46.10;;;;;;5028374;28;20780;-52
2024/01/18 11:38:29;;;;;;;2.47;1.33;;;19.50;44.80;;;;;;5022282;28;20032;-51
2024/01/18 11:41:04;;;;;;;2.15;1.33;;;18.80;45.10;;;;;;5030852;28;20492;-48
2024/01/18 11:44:01;;;;;;;3.33;1.63;;;19.60;45.00;;;;;;5031282;28;20029;-48
2024/01/18 11:46:47;;;;;;;3.28;1.90;;;20.30;44.30;;;;;;5024649;28;20030;-49
2024/01/18 11:49:14;;;;;;;5.40;2.30;;;20.00;44.40;;;;;;5027332;28;20037;-50
2024/01/18 11:51:40;;;;;;;5.43;2.88;;;19.10;45.10;;;;;;5031207;28;20029;-54
2024/01/18 11:54:08;;;;;;;7.25;3.35;;;19.60;45.10;;;;;;5023699;28;20032;-48
2024/01/18 11:56:37;;;;;;;4.65;2.40;;;20.00;44.90;;;;;;5030777;28;20496;-51
2024/01/18 11:59:03;;;;;;;6.53;3.10;;;19.70;45.00;;;;;;5022649;28;20481;-56
2024/01/18 12:01:29;;;;;;;4.68;2.22;;;20.50;43.10;;;;;;5030132;28;20049;-57
2024/01/18 12:03:56;;;;;;;6.90;2.80;;;20.30;42.70;;;;;;5028707;28;20103;-54
2024/01/18 12:06:28;;;;;;;2.97;1.88;;;19.70;44.50;;;;;;5030664;28;20032;-51
2024/01/18 12:08:54;;;;;;;4.78;2.15;;;20.70;42.40;;;;;;5028863;28;20113;-51
2024/01/18 12:11:20;;;;;;;4.95;2.10;;;21.10;42.50;;;;;;5026854;28;20049;-52
2024/01/18 12:13:47;;;;;;;4.82;2.33;;;20.30;43.20;;;;;;5028438;28;20068;-51
2024/01/18 12:16:13;;;;;;;6.32;2.03;;;20.00;43.00;;;;;;5027081;28;20041;-52
2024/01/18 12:18:45;;;;;;;4.53;2.35;;;20.50;43.30;;;;;;5027498;28;20092;-58
2024/01/18 12:21:11;;;;;;;3.40;2.05;;;20.60;42.90;;;;;;5027910;28;20113;-52
2024/01/18 12:23:37;;;;;;;2.72;1.52;;;20.50;42.70;;;;;;5029082;28;20100;-53
2024/01/18 12:26:04;;;;;;;3.67;1.75;;;20.30;42.00;;;;;;5029078;28;20036;-56
2024/01/18 12:28:30;;;;;;;4.90;1.77;;;19.40;43.70;;;;;;5030319;28;20029;-50
2024/01/18 12:31:01;;;;;;;4.53;2.63;;;19.80;43.30;;;;;;5039308;28;20622;-57
2024/01/18 12:33:32;;;;;;;3.70;1.95;;;19.50;43.60;;;;;;5039411;28;20033;-56
2024/01/18 12:36:01;;;;;;;3.72;2.20;;;19.10;44.90;;;;;;5035672;28;20040;-49
2024/01/18 12:38:27;;;;;;;3.67;2.50;;;18.90;44.30;;;;;;5044980;28;20060;-54
2024/01/18 12:40:53;;;;;;;7.25;2.08;;;18.50;45.60;;;;;;5047915;28;20057;-53
2024/01/18 12:43:18;;;;;;;4.15;1.95;;;19.10;45.10;;;;;;5050281;28;20021;-53
2024/01/18 12:45:52;;;;;;;4.47;1.92;;;19.90;44.70;;;;;;5050157;28;20111;-52
2024/01/18 12:48:19;;;;;;;3.88;2.00;;;19.60;44.90;;;;;;5042460;28;20369;-58